sensor_id;sensor_type;location;lat;lon;timestamp;P1;durP1;ratioP1;P2;durP2;ratioP2
10041;SDS011;5061;49.068;12.058;2022-11-27T00:00:30;3.10;;;2.80;;
10041;SDS011;5061;49.068;12.058;2022-11-27T00:03:52;3.23;;;2.87;;
10041;SDS011;5061;49.068;12.058;2022-11-27T00:07:14;3.00;;;2.57;;
10041;SDS011;5061;49.068;12.058;2022-11-27T00:10:34;4.87;;;3.30;;
10041;SDS011;5061;49.068;12.058;2022-11-27T00:13:55;4.13;;;3.23;;
10041;SDS011;5061;49.068;12.058;2022-11-27T00:17:16;3.13;;;2.80;;
10041;SDS011;5061;49.068;12.058;2022-11-27T00:20:37;4.50;;;3.23;;
10041;SDS011;5061;49.068;12.058;2022-11-27T00:23:58;2.80;;;2.40;;
10041;SDS011;5061;49.068;12.058;2022-11-27T00:27:20;2.87;;;2.50;;
10041;SDS011;5061;49.068;12.058;2022-11-27T00:30:40;4.77;;;3.27;;
10041;SDS011;5061;49.068;12.058;2022-11-27T00:34:03;4.87;;;3.53;;
10041;SDS011;5061;49.068;12.058;2022-11-27T00:37:24;6.70;;;4.30;;
10041;SDS011;5061;49.068;12.058;2022-11-27T00:40:45;6.27;;;4.03;;
10041;SDS011;5061;49.068;12.058;2022-11-27T00:44:06;4.77;;;3.60;;
10041;SDS011;5061;49.068;12.058;2022-11-27T00:47:27;6.60;;;4.50;;
10041;SDS011;5061;49.068;12.058;2022-11-27T00:50:47;5.20;;;3.60;;
10041;SDS011;5061;49.068;12.058;2022-11-27T00:54:08;5.03;;;3.77;;
10041;SDS011;5061;49.068;12.058;2022-11-27T00:57:28;3.47;;;2.77;;
10041;SDS011;5061;49.068;12.058;2022-11-27T01:04:16;4.30;;;3.37;;
10041;SDS011;5061;49.068;12.058;2022-11-27T01:07:37;4.00;;;3.40;;
10041;SDS011;5061;49.068;12.058;2022-11-27T01:10:58;4.90;;;3.23;;
10041;SDS011;5061;49.068;12.058;2022-11-27T01:14:18;4.53;;;3.10;;
10041;SDS011;5061;49.068;12.058;2022-11-27T01:17:39;5.87;;;3.57;;
10041;SDS011;5061;49.068;12.058;2022-11-27T01:21:00;4.50;;;2.80;;
10041;SDS011;5061;49.068;12.058;2022-11-27T01:24:21;3.87;;;2.63;;
10041;SDS011;5061;49.068;12.058;2022-11-27T01:27:41;4.50;;;3.07;;
10041;SDS011;5061;49.068;12.058;2022-11-27T01:31:03;3.40;;;2.70;;
10041;SDS011;5061;49.068;12.058;2022-11-27T01:34:25;3.40;;;2.47;;
10041;SDS011;5061;49.068;12.058;2022-11-27T01:37:46;4.20;;;2.33;;
10041;SDS011;5061;49.068;12.058;2022-11-27T01:47:57;3.00;;;2.70;;
10041;SDS011;5061;49.068;12.058;2022-11-27T01:51:20;3.93;;;2.70;;
10041;SDS011;5061;49.068;12.058;2022-11-27T01:54:44;3.13;;;2.70;;
10041;SDS011;5061;49.068;12.058;2022-11-27T01:58:11;2.33;;;2.13;;
10041;SDS011;5061;49.068;12.058;2022-11-27T02:01:36;3.17;;;2.30;;
10041;SDS011;5061;49.068;12.058;2022-11-27T02:04:57;3.70;;;2.90;;
10041;SDS011;5061;49.068;12.058;2022-11-27T02:08:18;3.60;;;2.70;;
10041;SDS011;5061;49.068;12.058;2022-11-27T02:11:47;3.63;;;2.90;;
10041;SDS011;5061;49.068;12.058;2022-11-27T02:19:16;4.30;;;3.07;;
10041;SDS011;5061;49.068;12.058;2022-11-27T02:31:09;4.33;;;3.40;;
10041;SDS011;5061;49.068;12.058;2022-11-27T02:34:51;3.67;;;2.57;;
10041;SDS011;5061;49.068;12.058;2022-11-27T02:38:32;3.50;;;3.07;;
10041;SDS011;5061;49.068;12.058;2022-11-27T02:42:05;4.60;;;3.60;;
10041;SDS011;5061;49.068;12.058;2022-11-27T02:45:32;2.90;;;2.60;;
10041;SDS011;5061;49.068;12.058;2022-11-27T02:48:57;3.23;;;2.20;;
10041;SDS011;5061;49.068;12.058;2022-11-27T02:52:23;5.13;;;2.80;;
10041;SDS011;5061;49.068;12.058;2022-11-27T02:55:45;4.00;;;2.60;;
10041;SDS011;5061;49.068;12.058;2022-11-27T02:59:11;3.10;;;2.20;;
10041;SDS011;5061;49.068;12.058;2022-11-27T03:02:34;2.27;;;1.90;;
10041;SDS011;5061;49.068;12.058;2022-11-27T03:05:59;3.30;;;2.83;;
10041;SDS011;5061;49.068;12.058;2022-11-27T03:09:26;9.23;;;3.70;;
10041;SDS011;5061;49.068;12.058;2022-11-27T03:12:56;4.20;;;3.00;;
10041;SDS011;5061;49.068;12.058;2022-11-27T03:20:07;4.97;;;3.77;;
10041;SDS011;5061;49.068;12.058;2022-11-27T03:23:29;4.70;;;3.03;;
10041;SDS011;5061;49.068;12.058;2022-11-27T03:26:50;5.20;;;3.67;;
10041;SDS011;5061;49.068;12.058;2022-11-27T03:30:11;7.50;;;4.83;;
10041;SDS011;5061;49.068;12.058;2022-11-27T03:33:32;6.43;;;4.07;;
10041;SDS011;5061;49.068;12.058;2022-11-27T03:36:53;5.50;;;3.93;;
10041;SDS011;5061;49.068;12.058;2022-11-27T03:40:14;4.00;;;3.50;;
10041;SDS011;5061;49.068;12.058;2022-11-27T03:43:40;5.53;;;3.97;;
10041;SDS011;5061;49.068;12.058;2022-11-27T03:47:06;3.57;;;3.07;;
10041;SDS011;5061;49.068;12.058;2022-11-27T03:57:58;5.70;;;4.10;;
10041;SDS011;5061;49.068;12.058;2022-11-27T04:01:22;8.27;;;5.10;;
10041;SDS011;5061;49.068;12.058;2022-11-27T04:04:45;6.97;;;4.77;;
10041;SDS011;5061;49.068;12.058;2022-11-27T04:08:05;7.90;;;4.23;;
10041;SDS011;5061;49.068;12.058;2022-11-27T04:11:26;5.80;;;3.80;;
10041;SDS011;5061;49.068;12.058;2022-11-27T04:14:47;5.60;;;4.23;;
10041;SDS011;5061;49.068;12.058;2022-11-27T04:18:07;15.20;;;4.73;;
10041;SDS011;5061;49.068;12.058;2022-11-27T04:21:28;7.07;;;4.90;;
10041;SDS011;5061;49.068;12.058;2022-11-27T04:24:48;6.23;;;3.83;;
10041;SDS011;5061;49.068;12.058;2022-11-27T04:28:10;6.20;;;3.77;;
10041;SDS011;5061;49.068;12.058;2022-11-27T04:31:30;5.80;;;4.47;;
10041;SDS011;5061;49.068;12.058;2022-11-27T04:34:51;7.27;;;4.60;;
10041;SDS011;5061;49.068;12.058;2022-11-27T04:38:11;6.43;;;4.40;;
10041;SDS011;5061;49.068;12.058;2022-11-27T04:41:32;7.17;;;4.10;;
10041;SDS011;5061;49.068;12.058;2022-11-27T04:44:53;6.90;;;4.43;;
10041;SDS011;5061;49.068;12.058;2022-11-27T04:48:13;6.43;;;4.83;;
10041;SDS011;5061;49.068;12.058;2022-11-27T04:51:34;5.90;;;4.13;;
10041;SDS011;5061;49.068;12.058;2022-11-27T04:54:55;6.00;;;3.87;;
10041;SDS011;5061;49.068;12.058;2022-11-27T04:58:15;7.00;;;4.10;;
10041;SDS011;5061;49.068;12.058;2022-11-27T05:01:36;4.97;;;3.63;;
10041;SDS011;5061;49.068;12.058;2022-11-27T05:04:56;5.50;;;3.37;;
10041;SDS011;5061;49.068;12.058;2022-11-27T05:08:17;7.00;;;4.47;;
10041;SDS011;5061;49.068;12.058;2022-11-27T05:11:38;5.93;;;3.83;;
10041;SDS011;5061;49.068;12.058;2022-11-27T05:14:58;6.30;;;3.90;;
10041;SDS011;5061;49.068;12.058;2022-11-27T05:18:19;3.97;;;2.90;;
10041;SDS011;5061;49.068;12.058;2022-11-27T05:21:40;5.20;;;3.30;;
10041;SDS011;5061;49.068;12.058;2022-11-27T05:25:01;4.10;;;3.30;;
10041;SDS011;5061;49.068;12.058;2022-11-27T05:28:23;4.33;;;3.03;;
10041;SDS011;5061;49.068;12.058;2022-11-27T05:31:44;4.90;;;3.10;;
10041;SDS011;5061;49.068;12.058;2022-11-27T05:35:05;3.80;;;2.73;;
10041;SDS011;5061;49.068;12.058;2022-11-27T05:38:25;4.43;;;3.03;;
10041;SDS011;5061;49.068;12.058;2022-11-27T05:41:46;5.90;;;3.30;;
10041;SDS011;5061;49.068;12.058;2022-11-27T05:45:07;4.23;;;2.93;;
10041;SDS011;5061;49.068;12.058;2022-11-27T05:48:28;4.93;;;3.53;;
10041;SDS011;5061;49.068;12.058;2022-11-27T05:51:48;6.90;;;4.00;;
10041;SDS011;5061;49.068;12.058;2022-11-27T05:55:09;4.07;;;2.90;;
10041;SDS011;5061;49.068;12.058;2022-11-27T05:58:30;4.60;;;3.27;;
10041;SDS011;5061;49.068;12.058;2022-11-27T06:01:50;5.10;;;2.77;;
10041;SDS011;5061;49.068;12.058;2022-11-27T06:05:11;6.60;;;3.73;;
10041;SDS011;5061;49.068;12.058;2022-11-27T06:08:32;4.13;;;3.10;;
10041;SDS011;5061;49.068;12.058;2022-11-27T06:11:52;6.30;;;3.63;;
10041;SDS011;5061;49.068;12.058;2022-11-27T06:15:13;4.60;;;2.43;;
10041;SDS011;5061;49.068;12.058;2022-11-27T06:18:33;3.20;;;2.40;;
10041;SDS011;5061;49.068;12.058;2022-11-27T06:21:57;4.03;;;3.00;;
10041;SDS011;5061;49.068;12.058;2022-11-27T06:25:17;3.53;;;2.53;;
10041;SDS011;5061;49.068;12.058;2022-11-27T06:28:38;3.77;;;2.73;;
10041;SDS011;5061;49.068;12.058;2022-11-27T06:31:59;3.70;;;2.60;;
10041;SDS011;5061;49.068;12.058;2022-11-27T06:35:20;4.17;;;2.97;;
10041;SDS011;5061;49.068;12.058;2022-11-27T06:38:41;2.80;;;2.30;;
10041;SDS011;5061;49.068;12.058;2022-11-27T06:42:02;4.53;;;3.20;;
10041;SDS011;5061;49.068;12.058;2022-11-27T06:45:23;5.20;;;3.17;;
10041;SDS011;5061;49.068;12.058;2022-11-27T06:48:45;4.33;;;3.00;;
10041;SDS011;5061;49.068;12.058;2022-11-27T06:52:07;5.13;;;3.20;;
10041;SDS011;5061;49.068;12.058;2022-11-27T06:55:27;6.53;;;3.67;;
10041;SDS011;5061;49.068;12.058;2022-11-27T06:58:52;6.30;;;3.77;;
10041;SDS011;5061;49.068;12.058;2022-11-27T07:02:14;4.63;;;3.03;;
10041;SDS011;5061;49.068;12.058;2022-11-27T07:05:35;7.57;;;4.20;;
10041;SDS011;5061;49.068;12.058;2022-11-27T07:08:56;9.07;;;5.13;;
10041;SDS011;5061;49.068;12.058;2022-11-27T07:12:17;10.63;;;6.17;;
10041;SDS011;5061;49.068;12.058;2022-11-27T07:15:37;7.63;;;4.13;;
10041;SDS011;5061;49.068;12.058;2022-11-27T07:18:59;6.97;;;4.20;;
10041;SDS011;5061;49.068;12.058;2022-11-27T07:22:21;5.63;;;3.60;;
10041;SDS011;5061;49.068;12.058;2022-11-27T07:25:42;7.27;;;3.63;;
10041;SDS011;5061;49.068;12.058;2022-11-27T07:29:02;5.53;;;3.40;;
10041;SDS011;5061;49.068;12.058;2022-11-27T07:32:23;7.87;;;4.70;;
10041;SDS011;5061;49.068;12.058;2022-11-27T07:35:44;6.20;;;4.13;;
10041;SDS011;5061;49.068;12.058;2022-11-27T07:39:04;5.60;;;3.70;;
10041;SDS011;5061;49.068;12.058;2022-11-27T07:42:26;5.07;;;3.67;;
10041;SDS011;5061;49.068;12.058;2022-11-27T07:45:47;5.70;;;3.63;;
10041;SDS011;5061;49.068;12.058;2022-11-27T07:49:08;4.70;;;3.20;;
10041;SDS011;5061;49.068;12.058;2022-11-27T07:52:28;5.30;;;3.47;;
10041;SDS011;5061;49.068;12.058;2022-11-27T07:55:49;6.13;;;3.63;;
10041;SDS011;5061;49.068;12.058;2022-11-27T07:59:09;5.30;;;3.40;;
10041;SDS011;5061;49.068;12.058;2022-11-27T08:02:30;7.43;;;5.03;;
10041;SDS011;5061;49.068;12.058;2022-11-27T08:05:51;9.33;;;5.57;;
10041;SDS011;5061;49.068;12.058;2022-11-27T08:09:11;9.40;;;5.20;;
10041;SDS011;5061;49.068;12.058;2022-11-27T08:12:32;8.27;;;5.20;;
10041;SDS011;5061;49.068;12.058;2022-11-27T08:15:52;13.87;;;6.50;;
10041;SDS011;5061;49.068;12.058;2022-11-27T08:19:13;13.03;;;6.77;;
10041;SDS011;5061;49.068;12.058;2022-11-27T08:22:34;12.00;;;5.67;;
10041;SDS011;5061;49.068;12.058;2022-11-27T08:25:54;8.40;;;5.13;;
10041;SDS011;5061;49.068;12.058;2022-11-27T08:29:15;11.33;;;5.93;;
10041;SDS011;5061;49.068;12.058;2022-11-27T08:32:39;10.83;;;7.30;;
10041;SDS011;5061;49.068;12.058;2022-11-27T08:36:01;27.70;;;12.57;;
10041;SDS011;5061;49.068;12.058;2022-11-27T08:39:23;26.90;;;11.47;;
10041;SDS011;5061;49.068;12.058;2022-11-27T08:42:45;21.27;;;9.93;;
10041;SDS011;5061;49.068;12.058;2022-11-27T08:46:06;15.97;;;9.37;;
10041;SDS011;5061;49.068;12.058;2022-11-27T08:49:27;21.77;;;8.23;;
10041;SDS011;5061;49.068;12.058;2022-11-27T08:52:50;21.90;;;9.07;;
10041;SDS011;5061;49.068;12.058;2022-11-27T08:56:15;16.40;;;7.40;;
10041;SDS011;5061;49.068;12.058;2022-11-27T08:59:40;21.27;;;9.63;;
10041;SDS011;5061;49.068;12.058;2022-11-27T09:03:01;23.37;;;9.70;;
10041;SDS011;5061;49.068;12.058;2022-11-27T09:06:23;27.00;;;11.23;;
10041;SDS011;5061;49.068;12.058;2022-11-27T09:09:48;22.97;;;9.50;;
10041;SDS011;5061;49.068;12.058;2022-11-27T09:13:08;19.40;;;8.83;;
10041;SDS011;5061;49.068;12.058;2022-11-27T09:16:33;26.50;;;10.03;;
10041;SDS011;5061;49.068;12.058;2022-11-27T09:19:56;24.13;;;9.70;;
10041;SDS011;5061;49.068;12.058;2022-11-27T09:23:20;21.33;;;9.10;;
10041;SDS011;5061;49.068;12.058;2022-11-27T09:26:50;18.10;;;8.10;;
10041;SDS011;5061;49.068;12.058;2022-11-27T09:30:11;18.33;;;9.13;;
10041;SDS011;5061;49.068;12.058;2022-11-27T09:33:32;22.33;;;9.83;;
10041;SDS011;5061;49.068;12.058;2022-11-27T09:36:54;21.47;;;9.50;;
10041;SDS011;5061;49.068;12.058;2022-11-27T09:40:18;18.30;;;8.97;;
10041;SDS011;5061;49.068;12.058;2022-11-27T09:44:01;12.80;;;6.70;;
10041;SDS011;5061;49.068;12.058;2022-11-27T09:51:01;19.63;;;9.50;;
10041;SDS011;5061;49.068;12.058;2022-11-27T09:54:42;25.10;;;9.63;;
10041;SDS011;5061;49.068;12.058;2022-11-27T09:58:17;23.27;;;11.33;;
10041;SDS011;5061;49.068;12.058;2022-11-27T10:01:51;22.60;;;10.30;;
10041;SDS011;5061;49.068;12.058;2022-11-27T10:05:25;20.83;;;9.47;;
10041;SDS011;5061;49.068;12.058;2022-11-27T10:19:44;19.40;;;9.30;;
10041;SDS011;5061;49.068;12.058;2022-11-27T10:26:47;18.43;;;9.03;;
10041;SDS011;5061;49.068;12.058;2022-11-27T10:30:14;15.60;;;8.63;;
10041;SDS011;5061;49.068;12.058;2022-11-27T10:34:14;15.43;;;8.37;;
10041;SDS011;5061;49.068;12.058;2022-11-27T10:37:44;18.40;;;8.83;;
10041;SDS011;5061;49.068;12.058;2022-11-27T10:41:28;17.97;;;8.30;;
10041;SDS011;5061;49.068;12.058;2022-11-27T10:48:45;16.30;;;8.10;;
10041;SDS011;5061;49.068;12.058;2022-11-27T10:52:19;20.30;;;10.03;;
10041;SDS011;5061;49.068;12.058;2022-11-27T10:59:36;17.00;;;8.90;;
10041;SDS011;5061;49.068;12.058;2022-11-27T11:03:26;21.10;;;10.23;;
10041;SDS011;5061;49.068;12.058;2022-11-27T11:06:54;24.20;;;11.33;;
10041;SDS011;5061;49.068;12.058;2022-11-27T11:10:35;26.50;;;12.50;;
10041;SDS011;5061;49.068;12.058;2022-11-27T11:14:03;26.57;;;11.80;;
10041;SDS011;5061;49.068;12.058;2022-11-27T11:17:38;34.30;;;13.40;;
10041;SDS011;5061;49.068;12.058;2022-11-27T11:21:03;37.20;;;15.30;;
10041;SDS011;5061;49.068;12.058;2022-11-27T11:24:27;27.10;;;13.03;;
10041;SDS011;5061;49.068;12.058;2022-11-27T11:27:50;26.30;;;12.57;;
10041;SDS011;5061;49.068;12.058;2022-11-27T11:31:21;25.07;;;11.27;;
10041;SDS011;5061;49.068;12.058;2022-11-27T11:35:00;27.73;;;11.20;;
10041;SDS011;5061;49.068;12.058;2022-11-27T11:38:26;24.80;;;11.43;;
10041;SDS011;5061;49.068;12.058;2022-11-27T11:41:50;21.03;;;10.23;;
10041;SDS011;5061;49.068;12.058;2022-11-27T11:48:32;19.53;;;8.70;;
10041;SDS011;5061;49.068;12.058;2022-11-27T11:55:56;19.43;;;10.07;;
10041;SDS011;5061;49.068;12.058;2022-11-27T11:59:40;23.00;;;10.93;;
10041;SDS011;5061;49.068;12.058;2022-11-27T12:10:29;27.47;;;13.00;;
10041;SDS011;5061;49.068;12.058;2022-11-27T12:21:43;23.03;;;10.27;;
10041;SDS011;5061;49.068;12.058;2022-11-27T12:36:01;26.67;;;10.53;;
10041;SDS011;5061;49.068;12.058;2022-11-27T12:39:34;22.40;;;11.07;;
10041;SDS011;5061;49.068;12.058;2022-11-27T12:43:25;22.17;;;11.60;;
10041;SDS011;5061;49.068;12.058;2022-11-27T12:50:20;25.27;;;12.83;;
10041;SDS011;5061;49.068;12.058;2022-11-27T12:53:54;26.00;;;13.10;;
10041;SDS011;5061;49.068;12.058;2022-11-27T12:57:17;22.87;;;11.13;;
10041;SDS011;5061;49.068;12.058;2022-11-27T13:00:42;24.97;;;11.77;;
10041;SDS011;5061;49.068;12.058;2022-11-27T13:12:45;25.33;;;11.57;;
10041;SDS011;5061;49.068;12.058;2022-11-27T13:16:20;24.50;;;12.47;;
10041;SDS011;5061;49.068;12.058;2022-11-27T13:19:49;25.73;;;12.03;;
10041;SDS011;5061;49.068;12.058;2022-11-27T13:23:10;28.37;;;13.30;;
10041;SDS011;5061;49.068;12.058;2022-11-27T13:26:35;28.03;;;12.63;;
10041;SDS011;5061;49.068;12.058;2022-11-27T13:30:23;26.50;;;12.67;;
10041;SDS011;5061;49.068;12.058;2022-11-27T13:33:46;30.53;;;13.43;;
10041;SDS011;5061;49.068;12.058;2022-11-27T13:37:09;26.07;;;12.90;;
10041;SDS011;5061;49.068;12.058;2022-11-27T13:40:53;25.83;;;12.20;;
10041;SDS011;5061;49.068;12.058;2022-11-27T13:44:23;29.70;;;12.43;;
10041;SDS011;5061;49.068;12.058;2022-11-27T13:47:45;22.17;;;10.67;;
10041;SDS011;5061;49.068;12.058;2022-11-27T13:51:07;23.83;;;12.47;;
10041;SDS011;5061;49.068;12.058;2022-11-27T13:54:29;26.93;;;13.10;;
10041;SDS011;5061;49.068;12.058;2022-11-27T13:57:53;26.20;;;12.90;;
10041;SDS011;5061;49.068;12.058;2022-11-27T14:04:46;24.53;;;13.40;;
10041;SDS011;5061;49.068;12.058;2022-11-27T14:08:18;25.60;;;12.83;;
10041;SDS011;5061;49.068;12.058;2022-11-27T14:11:41;24.23;;;12.63;;
10041;SDS011;5061;49.068;12.058;2022-11-27T14:18:37;25.50;;;11.87;;
10041;SDS011;5061;49.068;12.058;2022-11-27T14:21:58;25.80;;;12.50;;
10041;SDS011;5061;49.068;12.058;2022-11-27T14:28:55;24.20;;;11.63;;
10041;SDS011;5061;49.068;12.058;2022-11-27T14:32:17;22.60;;;11.90;;
10041;SDS011;5061;49.068;12.058;2022-11-27T14:35:39;21.57;;;11.80;;
10041;SDS011;5061;49.068;12.058;2022-11-27T14:39:00;27.00;;;12.60;;
10041;SDS011;5061;49.068;12.058;2022-11-27T14:42:23;28.30;;;13.57;;
10041;SDS011;5061;49.068;12.058;2022-11-27T14:45:47;22.70;;;11.73;;
10041;SDS011;5061;49.068;12.058;2022-11-27T14:49:14;24.07;;;10.90;;
10041;SDS011;5061;49.068;12.058;2022-11-27T14:52:41;26.60;;;13.03;;
10041;SDS011;5061;49.068;12.058;2022-11-27T14:56:02;23.20;;;12.53;;
10041;SDS011;5061;49.068;12.058;2022-11-27T14:59:24;18.30;;;10.13;;
10041;SDS011;5061;49.068;12.058;2022-11-27T15:02:47;21.87;;;11.03;;
10041;SDS011;5061;49.068;12.058;2022-11-27T15:06:14;15.93;;;9.03;;
10041;SDS011;5061;49.068;12.058;2022-11-27T15:09:40;18.40;;;10.47;;
10041;SDS011;5061;49.068;12.058;2022-11-27T15:13:04;25.40;;;11.77;;
10041;SDS011;5061;49.068;12.058;2022-11-27T15:16:30;19.13;;;9.97;;
10041;SDS011;5061;49.068;12.058;2022-11-27T15:19:51;20.20;;;9.83;;
10041;SDS011;5061;49.068;12.058;2022-11-27T15:23:13;23.20;;;11.10;;
10041;SDS011;5061;49.068;12.058;2022-11-27T15:26:37;18.80;;;9.87;;
10041;SDS011;5061;49.068;12.058;2022-11-27T15:40:33;21.20;;;10.70;;
10041;SDS011;5061;49.068;12.058;2022-11-27T15:43:58;18.77;;;10.40;;
10041;SDS011;5061;49.068;12.058;2022-11-27T15:47:23;22.83;;;10.70;;
10041;SDS011;5061;49.068;12.058;2022-11-27T15:50:45;18.50;;;10.53;;
10041;SDS011;5061;49.068;12.058;2022-11-27T15:54:06;20.67;;;10.83;;
10041;SDS011;5061;49.068;12.058;2022-11-27T15:57:27;20.50;;;11.13;;
10041;SDS011;5061;49.068;12.058;2022-11-27T16:00:47;24.03;;;13.30;;
10041;SDS011;5061;49.068;12.058;2022-11-27T16:04:08;18.93;;;8.60;;
10041;SDS011;5061;49.068;12.058;2022-11-27T16:07:29;20.90;;;10.13;;
10041;SDS011;5061;49.068;12.058;2022-11-27T16:10:49;20.93;;;10.37;;
10041;SDS011;5061;49.068;12.058;2022-11-27T16:14:10;18.90;;;10.43;;
10041;SDS011;5061;49.068;12.058;2022-11-27T16:17:31;23.83;;;11.90;;
10041;SDS011;5061;49.068;12.058;2022-11-27T16:20:52;27.90;;;12.30;;
10041;SDS011;5061;49.068;12.058;2022-11-27T16:24:13;23.00;;;13.10;;
10041;SDS011;5061;49.068;12.058;2022-11-27T16:27:34;21.57;;;11.10;;
10041;SDS011;5061;49.068;12.058;2022-11-27T16:30:55;23.47;;;11.43;;
10041;SDS011;5061;49.068;12.058;2022-11-27T16:34:18;17.80;;;10.40;;
10041;SDS011;5061;49.068;12.058;2022-11-27T16:37:39;21.83;;;9.33;;
10041;SDS011;5061;49.068;12.058;2022-11-27T16:41:01;21.10;;;9.80;;
10041;SDS011;5061;49.068;12.058;2022-11-27T16:44:23;20.40;;;10.30;;
10041;SDS011;5061;49.068;12.058;2022-11-27T16:47:44;17.03;;;9.37;;
10041;SDS011;5061;49.068;12.058;2022-11-27T16:51:05;13.80;;;8.57;;
10041;SDS011;5061;49.068;12.058;2022-11-27T16:54:30;17.40;;;9.90;;
10041;SDS011;5061;49.068;12.058;2022-11-27T16:57:50;19.37;;;9.87;;
10041;SDS011;5061;49.068;12.058;2022-11-27T17:01:15;21.10;;;11.60;;
10041;SDS011;5061;49.068;12.058;2022-11-27T17:04:37;20.83;;;10.40;;
10041;SDS011;5061;49.068;12.058;2022-11-27T17:07:58;23.57;;;10.20;;
10041;SDS011;5061;49.068;12.058;2022-11-27T17:11:20;25.00;;;12.20;;
10041;SDS011;5061;49.068;12.058;2022-11-27T17:14:43;21.47;;;10.63;;
10041;SDS011;5061;49.068;12.058;2022-11-27T17:18:09;21.47;;;10.27;;
10041;SDS011;5061;49.068;12.058;2022-11-27T17:21:31;21.53;;;10.87;;
10041;SDS011;5061;49.068;12.058;2022-11-27T17:24:53;20.00;;;11.20;;
10041;SDS011;5061;49.068;12.058;2022-11-27T17:28:16;20.70;;;12.07;;
10041;SDS011;5061;49.068;12.058;2022-11-27T17:31:37;19.70;;;10.90;;
10041;SDS011;5061;49.068;12.058;2022-11-27T17:34:58;26.60;;;12.10;;
10041;SDS011;5061;49.068;12.058;2022-11-27T17:38:19;21.40;;;12.00;;
10041;SDS011;5061;49.068;12.058;2022-11-27T17:41:40;25.47;;;11.50;;
10041;SDS011;5061;49.068;12.058;2022-11-27T17:45:04;21.13;;;10.40;;
10041;SDS011;5061;49.068;12.058;2022-11-27T17:48:24;24.97;;;10.80;;
10041;SDS011;5061;49.068;12.058;2022-11-27T17:51:45;21.13;;;10.97;;
10041;SDS011;5061;49.068;12.058;2022-11-27T17:55:06;20.90;;;11.17;;
10041;SDS011;5061;49.068;12.058;2022-11-27T17:58:27;26.73;;;13.27;;
10041;SDS011;5061;49.068;12.058;2022-11-27T18:01:47;18.80;;;10.60;;
10041;SDS011;5061;49.068;12.058;2022-11-27T18:05:11;25.07;;;13.00;;
10041;SDS011;5061;49.068;12.058;2022-11-27T18:08:32;24.00;;;11.80;;
10041;SDS011;5061;49.068;12.058;2022-11-27T18:11:53;27.20;;;12.63;;
10041;SDS011;5061;49.068;12.058;2022-11-27T18:15:14;20.90;;;12.17;;
10041;SDS011;5061;49.068;12.058;2022-11-27T18:18:35;18.23;;;10.53;;
10041;SDS011;5061;49.068;12.058;2022-11-27T18:21:56;23.40;;;12.03;;
10041;SDS011;5061;49.068;12.058;2022-11-27T18:25:18;27.00;;;12.70;;
10041;SDS011;5061;49.068;12.058;2022-11-27T18:28:40;22.20;;;11.93;;
10041;SDS011;5061;49.068;12.058;2022-11-27T18:32:01;25.10;;;12.00;;
10041;SDS011;5061;49.068;12.058;2022-11-27T18:35:22;23.60;;;11.20;;
10041;SDS011;5061;49.068;12.058;2022-11-27T18:38:43;24.20;;;11.37;;
10041;SDS011;5061;49.068;12.058;2022-11-27T18:42:05;20.33;;;11.40;;
10041;SDS011;5061;49.068;12.058;2022-11-27T18:45:29;25.27;;;12.70;;
10041;SDS011;5061;49.068;12.058;2022-11-27T18:48:50;25.10;;;12.53;;
10041;SDS011;5061;49.068;12.058;2022-11-27T18:52:10;25.13;;;12.37;;
10041;SDS011;5061;49.068;12.058;2022-11-27T18:55:35;22.00;;;11.83;;
10041;SDS011;5061;49.068;12.058;2022-11-27T18:58:58;25.70;;;13.20;;
10041;SDS011;5061;49.068;12.058;2022-11-27T19:02:20;25.73;;;13.13;;
10041;SDS011;5061;49.068;12.058;2022-11-27T19:05:40;27.27;;;13.83;;
10041;SDS011;5061;49.068;12.058;2022-11-27T19:09:01;29.47;;;14.73;;
10041;SDS011;5061;49.068;12.058;2022-11-27T19:12:22;26.77;;;13.43;;
10041;SDS011;5061;49.068;12.058;2022-11-27T19:15:42;25.90;;;15.40;;
10041;SDS011;5061;49.068;12.058;2022-11-27T19:19:05;26.37;;;12.83;;
10041;SDS011;5061;49.068;12.058;2022-11-27T19:22:26;27.93;;;14.10;;
10041;SDS011;5061;49.068;12.058;2022-11-27T19:25:47;26.60;;;13.27;;
10041;SDS011;5061;49.068;12.058;2022-11-27T19:29:12;27.13;;;13.17;;
10041;SDS011;5061;49.068;12.058;2022-11-27T19:32:34;28.50;;;14.40;;
10041;SDS011;5061;49.068;12.058;2022-11-27T19:35:58;33.97;;;13.13;;
10041;SDS011;5061;49.068;12.058;2022-11-27T19:39:20;29.53;;;13.97;;
10041;SDS011;5061;49.068;12.058;2022-11-27T19:42:41;29.10;;;14.63;;
10041;SDS011;5061;49.068;12.058;2022-11-27T19:46:01;24.77;;;13.07;;
10041;SDS011;5061;49.068;12.058;2022-11-27T19:49:30;27.23;;;13.67;;
10041;SDS011;5061;49.068;12.058;2022-11-27T19:52:51;29.17;;;13.87;;
10041;SDS011;5061;49.068;12.058;2022-11-27T19:56:12;30.03;;;15.30;;
10041;SDS011;5061;49.068;12.058;2022-11-27T19:59:32;27.50;;;14.53;;
10041;SDS011;5061;49.068;12.058;2022-11-27T20:02:53;27.23;;;12.50;;
10041;SDS011;5061;49.068;12.058;2022-11-27T20:06:18;31.20;;;14.07;;
10041;SDS011;5061;49.068;12.058;2022-11-27T20:09:40;26.60;;;12.97;;
10041;SDS011;5061;49.068;12.058;2022-11-27T20:13:00;31.93;;;15.83;;
10041;SDS011;5061;49.068;12.058;2022-11-27T20:16:21;25.30;;;13.77;;
10041;SDS011;5061;49.068;12.058;2022-11-27T20:19:42;23.73;;;12.07;;
10041;SDS011;5061;49.068;12.058;2022-11-27T20:23:02;29.70;;;13.00;;
10041;SDS011;5061;49.068;12.058;2022-11-27T20:26:24;25.00;;;13.27;;
10041;SDS011;5061;49.068;12.058;2022-11-27T20:29:45;28.13;;;13.90;;
10041;SDS011;5061;49.068;12.058;2022-11-27T20:33:06;35.93;;;13.00;;
10041;SDS011;5061;49.068;12.058;2022-11-27T20:36:27;27.93;;;13.27;;
10041;SDS011;5061;49.068;12.058;2022-11-27T20:39:53;23.03;;;11.33;;
10041;SDS011;5061;49.068;12.058;2022-11-27T20:43:13;25.00;;;13.27;;
10041;SDS011;5061;49.068;12.058;2022-11-27T20:46:37;22.27;;;13.10;;
10041;SDS011;5061;49.068;12.058;2022-11-27T20:49:58;25.93;;;12.67;;
10041;SDS011;5061;49.068;12.058;2022-11-27T20:53:18;28.47;;;13.57;;
10041;SDS011;5061;49.068;12.058;2022-11-27T20:56:39;27.23;;;13.87;;
10041;SDS011;5061;49.068;12.058;2022-11-27T21:00:03;21.33;;;12.87;;
10041;SDS011;5061;49.068;12.058;2022-11-27T21:03:27;21.03;;;11.83;;
10041;SDS011;5061;49.068;12.058;2022-11-27T21:06:49;23.47;;;13.33;;
10041;SDS011;5061;49.068;12.058;2022-11-27T21:10:11;22.80;;;13.37;;
10041;SDS011;5061;49.068;12.058;2022-11-27T21:13:33;27.93;;;13.27;;
10041;SDS011;5061;49.068;12.058;2022-11-27T21:16:54;21.30;;;12.20;;
10041;SDS011;5061;49.068;12.058;2022-11-27T21:20:21;20.23;;;11.70;;
10041;SDS011;5061;49.068;12.058;2022-11-27T21:23:47;25.13;;;12.50;;
10041;SDS011;5061;49.068;12.058;2022-11-27T21:27:09;24.40;;;12.90;;
10041;SDS011;5061;49.068;12.058;2022-11-27T21:30:30;23.73;;;12.40;;
10041;SDS011;5061;49.068;12.058;2022-11-27T21:33:52;23.77;;;12.47;;
10041;SDS011;5061;49.068;12.058;2022-11-27T21:37:17;23.07;;;13.70;;
10041;SDS011;5061;49.068;12.058;2022-11-27T21:40:38;22.53;;;11.63;;
10041;SDS011;5061;49.068;12.058;2022-11-27T21:43:59;19.13;;;11.77;;
10041;SDS011;5061;49.068;12.058;2022-11-27T21:47:20;21.70;;;11.10;;
10041;SDS011;5061;49.068;12.058;2022-11-27T21:50:41;21.33;;;11.90;;
10041;SDS011;5061;49.068;12.058;2022-11-27T21:54:05;21.03;;;12.33;;
10041;SDS011;5061;49.068;12.058;2022-11-27T21:57:27;25.73;;;12.97;;
10041;SDS011;5061;49.068;12.058;2022-11-27T22:00:48;25.37;;;11.90;;
10041;SDS011;5061;49.068;12.058;2022-11-27T22:04:09;29.13;;;13.30;;
10041;SDS011;5061;49.068;12.058;2022-11-27T22:07:30;19.67;;;11.77;;
10041;SDS011;5061;49.068;12.058;2022-11-27T22:10:51;26.40;;;13.37;;